createdAt,value
2023-02-02T07:33:32.010Z,24.43
2023-02-02T07:34:31.922Z,24.57
2023-02-02T07:35:31.855Z,24.63
2023-02-02T07:36:31.704Z,24.78
2023-02-02T07:37:57.571Z,24.85
2023-02-02T07:43:11.856Z,24.76
2023-02-02T07:44:55.672Z,24.84
2023-02-02T07:45:55.628Z,24.98
2023-02-02T07:47:11.027Z,25.12
2023-02-02T07:49:10.850Z,25.40
2023-02-02T07:50:58.775Z,25.48
2023-02-02T07:52:37.049Z,25.37
2023-02-02T07:54:48.609Z,25.23
2023-02-02T07:56:28.471Z,25.08
2023-02-02T07:57:28.428Z,25.10
2023-02-02T07:58:28.385Z,25.24
2023-02-02T07:59:29.211Z,25.27
2023-02-02T08:00:28.469Z,25.28
2023-02-02T08:01:28.442Z,25.28
2023-02-02T08:02:28.301Z,25.28
2023-02-02T08:03:28.263Z,25.26
2023-02-02T08:04:28.253Z,25.34
2023-02-02T08:05:28.473Z,25.27
2023-02-02T08:06:28.320Z,25.50
2023-02-02T08:07:28.395Z,25.14
2023-02-02T08:08:28.436Z,24.92
2023-02-02T08:09:28.395Z,24.70
2023-02-02T08:10:28.378Z,24.53
2023-02-02T08:11:28.353Z,24.43
2023-02-02T08:12:28.394Z,25.07
2023-02-02T08:13:28.386Z,24.83
2023-02-02T08:14:28.380Z,24.62
2023-02-02T08:15:28.542Z,24.41
2023-02-02T08:16:28.619Z,24.23
2023-02-02T08:17:28.476Z,24.13
2023-02-02T08:18:28.524Z,24.04
2023-02-02T08:19:28.563Z,23.93
2023-02-02T08:20:28.531Z,23.88
2023-02-02T08:21:28.574Z,23.73
2023-02-02T08:22:28.571Z,23.64
2023-02-02T08:23:28.556Z,23.56
2023-02-02T08:24:28.564Z,23.42
2023-02-02T08:25:28.568Z,23.36
2023-02-02T08:26:28.640Z,23.28
